Time;durP1;ratioP1;P1;durP2;ratioP2;P2;SDS_P1;SDS_P2;PMS_P1;PMS_P2;Temp;Humidity;BMP_temperature;BMP_pressure;BME280_temperature;BME280_humidity;BME280_pressure;Samples;Min_cycle;Max_cycle;Signal;HPM_P1;HPM_P2
2024/02/20 00:02:01;;;;;;;5.25;1.52;;;;;;;-141.50;100.00;63355.56;5013089;28;20123;-79
2024/02/20 00:04:28;;;;;;;7.38;1.75;;;;;;;-141.50;100.00;63355.56;5009249;28;20046;-78
2024/02/20 00:06:57;;;;;;;4.90;1.73;;;;;;;-141.50;100.00;63355.56;4985041;28;20108;-79
2024/02/20 00:09:24;;;;;;;3.17;1.55;;;;;;;-141.50;100.00;63355.56;4987596;28;20142;-78
2024/02/20 00:11:51;;;;;;;7.20;1.75;;;;;;;-141.50;100.00;63355.56;4996219;28;20045;-79
2024/02/20 00:14:18;;;;;;;6.13;1.90;;;;;;;-141.50;100.00;63355.56;4996631;28;20137;-79
2024/02/20 00:16:46;;;;;;;4.93;1.60;;;;;;;-141.50;100.00;63355.56;4995948;28;20073;-79
2024/02/20 00:19:13;;;;;;;6.43;1.60;;;;;;;-141.50;100.00;63355.56;4996557;28;20064;-78
2024/02/20 00:21:41;;;;;;;6.05;2.38;;;;;;;-141.50;100.00;63355.56;5012674;28;20061;-77
2024/02/20 00:24:08;;;;;;;6.00;2.22;;;;;;;-141.50;100.00;63355.56;4994485;28;20080;-77
2024/02/20 00:26:35;;;;;;;5.22;2.13;;;;;;;-141.50;100.00;63355.56;4995297;28;20460;-79
2024/02/20 00:29:01;;;;;;;3.65;1.88;;;;;;;-141.50;100.00;63355.56;5013157;28;20042;-79
2024/02/20 00:31:28;;;;;;;5.25;2.08;;;;;;;-141.50;100.00;63355.56;5012656;28;20050;-79
2024/02/20 00:33:55;;;;;;;5.40;2.00;;;;;;;-141.50;100.00;63355.56;4995077;28;20041;-78
2024/02/20 00:36:22;;;;;;;7.88;1.98;;;;;;;-141.50;100.00;63355.56;5016098;28;20727;-80
2024/02/20 00:38:50;;;;;;;6.47;2.40;;;;;;;-141.50;100.00;63355.56;5013229;28;20550;-80
2024/02/20 00:41:18;;;;;;;6.00;2.33;;;;;;;-141.50;100.00;63355.56;5014721;28;20054;-80
2024/02/20 00:43:45;;;;;;;6.20;2.38;;;;;;;-141.50;100.00;63355.56;5013379;28;20099;-80
2024/02/20 00:46:19;;;;;;;7.25;2.08;;;;;;;-141.50;100.00;63355.56;4996092;28;20080;-79
2024/02/20 00:48:48;;;;;;;9.10;3.50;;;;;;;-141.50;100.00;63355.56;5013264;28;20046;-79
2024/02/20 00:51:19;;;;;;;5.97;2.65;;;;;;;-141.50;100.00;63355.56;4989676;28;20076;-80
2024/02/20 00:53:46;;;;;;;6.28;2.33;;;;;;;-141.50;100.00;63355.56;4996209;28;20045;-79
2024/02/20 00:56:13;;;;;;;7.88;2.72;;;;;;;-141.50;100.00;63355.56;5013339;28;20061;-80
2024/02/20 00:58:42;;;;;;;7.15;2.90;;;;;;;-141.50;100.00;63355.56;5013313;28;20049;-78
2024/02/20 01:01:11;;;;;;;11.85;3.13;;;;;;;-141.50;100.00;63355.56;4995021;28;20058;-79
2024/02/20 01:03:39;;;;;;;7.00;2.95;;;;;;;-141.50;100.00;63355.56;4997371;28;20042;-79
2024/02/20 01:06:06;;;;;;;9.45;3.40;;;;;;;-141.50;100.00;63355.56;5013113;28;20116;-77
2024/02/20 01:08:34;;;;;;;8.07;3.83;;;;;;;-141.50;100.00;63355.56;4995888;28;20113;-79
2024/02/20 01:11:04;;;;;;;8.07;3.20;;;;;;;-141.50;100.00;63355.56;5009769;28;20056;-79
2024/02/20 01:13:32;;;;;;;8.55;3.45;;;;;;;-141.50;100.00;63355.56;4993488;28;20057;-79
2024/02/20 01:15:59;;;;;;;7.00;3.33;;;;;;;-141.50;100.00;63355.56;5000749;28;20048;-79
2024/02/20 01:18:26;;;;;;;8.15;3.53;;;;;;;-141.50;100.00;63355.56;5012328;28;20054;-79
2024/02/20 01:20:54;;;;;;;6.97;3.13;;;;;;;-141.50;100.00;63355.56;5001920;28;20116;-78
2024/02/20 01:23:21;;;;;;;10.05;3.92;;;;;;;-141.50;100.00;63355.56;5011229;28;20189;-79
2024/02/20 01:25:48;;;;;;;10.93;3.13;;;;;;;-141.50;100.00;63355.56;4992053;28;20061;-78
2024/02/20 01:28:15;;;;;;;8.70;3.58;;;;;;;-141.50;100.00;63355.56;5012456;28;20058;-79
2024/02/20 01:30:43;;;;;;;6.55;3.05;;;;;;;-141.50;100.00;63355.56;4995523;28;20049;-79
2024/02/20 01:33:10;;;;;;;10.30;3.60;;;;;;;-141.50;100.00;63355.56;5013637;28;20057;-79
2024/02/20 01:35:38;;;;;;;7.85;3.28;;;;;;;-141.50;100.00;63355.56;5010689;28;20042;-78
2024/02/20 01:38:05;;;;;;;6.78;3.05;;;;;;;-141.50;100.00;63355.56;4993129;28;20053;-77
2024/02/20 01:40:32;;;;;;;8.48;3.25;;;;;;;-141.50;100.00;63355.56;5011440;28;20042;-79
2024/02/20 01:43:00;;;;;;;9.27;3.40;;;;;;;-141.50;100.00;63355.56;4986775;28;20520;-79
2024/02/20 01:45:29;;;;;;;7.50;3.33;;;;;;;-141.50;100.00;63355.56;5010046;28;20092;-78
2024/02/20 01:47:58;;;;;;;7.60;3.58;;;;;;;-141.50;100.00;63355.56;5006729;28;20045;-79
2024/02/20 01:50:25;;;;;;;9.95;3.05;;;;;;;-141.50;100.00;63355.56;5010740;28;20053;-79
2024/02/20 01:52:52;;;;;;;7.70;3.05;;;;;;;-141.50;100.00;63355.56;5010059;28;20042;-79
2024/02/20 01:55:22;;;;;;;10.45;3.45;;;;;;;-141.50;100.00;63355.56;4992500;28;20491;-78
2024/02/20 01:57:52;;;;;;;5.38;3.08;;;;;;;-141.50;100.00;63355.56;5010387;28;20061;-78
2024/02/20 02:00:19;;;;;;;6.65;3.08;;;;;;;-141.50;100.00;63355.56;5010472;28;20068;-79
2024/02/20 02:02:45;;;;;;;9.80;3.47;;;;;;;-141.50;100.00;63355.56;5010687;28;20210;-79
2024/02/20 02:05:12;;;;;;;8.50;3.42;;;;;;;-141.50;100.00;63355.56;4992645;28;20107;-77
2024/02/20 02:07:40;;;;;;;6.93;3.00;;;;;;;-141.50;100.00;63355.56;4993507;28;20598;-79
2024/02/20 02:10:07;;;;;;;7.70;3.35;;;;;;;-141.50;100.00;63355.56;5010706;28;20444;-79
2024/02/20 02:12:34;;;;;;;9.38;3.13;;;;;;;-141.50;100.00;63355.56;4994194;28;20045;-79
2024/02/20 02:15:01;;;;;;;6.47;3.35;;;;;;;-141.50;100.00;63355.56;5011745;28;20046;-79
2024/02/20 02:17:28;;;;;;;7.78;3.38;;;;;;;-141.50;100.00;63355.56;4992239;28;20050;-79
2024/02/20 02:19:54;;;;;;;11.13;3.20;;;;;;;-141.50;100.00;63355.56;5012093;28;20113;-79
2024/02/20 02:22:21;;;;;;;10.07;3.78;;;;;;;-141.50;100.00;63355.56;5009443;28;20066;-79
2024/02/20 02:24:48;;;;;;;8.35;3.15;;;;;;;-141.50;100.00;63355.56;4992876;28;20565;-80
2024/02/20 02:27:14;;;;;;;9.40;3.40;;;;;;;-141.50;100.00;63355.56;4991928;28;20054;-79
2024/02/20 02:29:42;;;;;;;8.73;3.17;;;;;;;-141.50;100.00;63355.56;5009598;28;20069;-79
2024/02/20 02:32:08;;;;;;;9.80;3.38;;;;;;;-141.50;100.00;63355.56;4987925;28;20041;-79
2024/02/20 02:34:35;;;;;;;8.93;3.30;;;;;;;-141.50;100.00;63355.56;5008082;28;20041;-79
2024/02/20 02:37:02;;;;;;;8.50;3.92;;;;;;;-141.50;100.00;63355.56;5009373;28;20042;-79
2024/02/20 02:39:29;;;;;;;7.57;3.33;;;;;;;-141.50;100.00;63355.56;5009889;28;20099;-78
2024/02/20 02:41:56;;;;;;;9.68;4.13;;;;;;;-141.50;100.00;63355.56;5009884;28;20042;-80
2024/02/20 02:44:23;;;;;;;12.02;4.63;;;;;;;-141.50;100.00;63355.56;4993382;28;20053;-79
2024/02/20 02:46:50;;;;;;;8.05;3.88;;;;;;;-141.50;100.00;63355.56;5009556;28;20050;-78
2024/02/20 02:49:17;;;;;;;8.15;4.28;;;;;;;-141.50;100.00;63355.56;4991019;28;20062;-80
2024/02/20 02:51:44;;;;;;;10.57;4.78;;;;;;;-141.50;100.00;63355.56;5010753;28;20057;-79
2024/02/20 02:54:11;;;;;;;12.85;4.70;;;;;;;-141.50;100.00;63355.56;4981916;28;20045;-79
2024/02/20 02:56:38;;;;;;;9.68;4.43;;;;;;;-141.50;100.00;63355.56;4993676;28;20104;-79
2024/02/20 02:59:04;;;;;;;12.00;4.60;;;;;;;-141.50;100.00;63355.56;5010079;28;20072;-78
2024/02/20 03:01:31;;;;;;;11.45;4.32;;;;;;;-141.50;100.00;63355.56;4973864;28;20417;-79
2024/02/20 03:04:01;;;;;;;13.48;5.43;;;;;;;-141.50;100.00;63355.56;4998297;28;20077;-78
2024/02/20 03:06:28;;;;;;;10.63;4.43;;;;;;;-141.50;100.00;63355.56;5020177;28;20045;-79
2024/02/20 03:08:55;;;;;;;13.30;4.80;;;;;;;-141.50;100.00;63355.56;4982645;28;20689;-79
2024/02/20 03:11:22;;;;;;;10.55;4.63;;;;;;;-141.50;100.00;63355.56;4987990;28;20058;-77
2024/02/20 03:13:49;;;;;;;9.38;4.07;;;;;;;-141.50;100.00;63355.56;4975265;28;20065;-79
2024/02/20 03:16:16;;;;;;;12.93;4.40;;;;;;;-141.50;100.00;63355.56;5002523;28;20041;-79
2024/02/20 03:18:43;;;;;;;13.57;5.25;;;;;;;-141.50;100.00;63355.56;4985950;28;20496;-79
2024/02/20 03:21:10;;;;;;;13.00;4.40;;;;;;;-141.50;100.00;63355.56;5002361;28;20396;-77
2024/02/20 03:23:36;;;;;;;11.68;4.70;;;;;;;-141.50;100.00;63355.56;4973204;28;20053;-79
2024/02/20 03:26:03;;;;;;;13.50;4.57;;;;;;;-141.50;100.00;63355.56;4984044;28;20050;-79
2024/02/20 03:28:31;;;;;;;13.05;5.15;;;;;;;-141.50;100.00;63355.56;5000582;28;20043;-76
2024/02/20 03:30:58;;;;;;;12.63;4.57;;;;;;;-141.50;100.00;63355.56;5005099;28;20052;-78
2024/02/20 03:33:26;;;;;;;12.18;4.75;;;;;;;-141.50;100.00;63355.56;4985172;28;20380;-79
2024/02/20 03:35:53;;;;;;;9.52;4.20;;;;;;;-141.50;100.00;63355.56;5009355;28;20056;-79
2024/02/20 03:38:20;;;;;;;14.60;5.38;;;;;;;-141.50;100.00;63355.56;5007348;28;20065;-79
2024/02/20 03:40:47;;;;;;;8.93;4.50;;;;;;;-141.50;100.00;63355.56;4992114;28;20041;-78
2024/02/20 03:43:14;;;;;;;12.05;5.00;;;;;;;-141.50;100.00;63355.56;4994402;28;20057;-79
2024/02/20 03:45:41;;;;;;;10.88;4.88;;;;;;;-141.50;100.00;63355.56;5014566;28;20042;-79
2024/02/20 03:48:07;;;;;;;15.80;4.90;;;;;;;-141.50;100.00;63355.56;4991815;28;20072;-79
2024/02/20 03:50:34;;;;;;;14.77;4.95;;;;;;;-141.50;100.00;63355.56;5008141;28;20145;-80
2024/02/20 03:53:02;;;;;;;9.95;4.50;;;;;;;-141.50;100.00;63355.56;5005544;28;20129;-79
2024/02/20 03:55:33;;;;;;;12.18;4.53;;;;;;;-141.50;100.00;63355.56;5007264;28;20048;-80
2024/02/20 03:58:00;;;;;;;13.07;4.97;;;;;;;-141.50;100.00;63355.56;4985612;28;20069;-79
2024/02/20 04:00:27;;;;;;;15.27;5.07;;;;;;;-141.50;100.00;63355.56;4987704;28;20050;-79
2024/02/20 04:02:56;;;;;;;11.13;4.68;;;;;;;-141.50;100.00;63355.56;4992241;28;20054;-80
2024/02/20 04:05:23;;;;;;;14.07;5.55;;;;;;;-141.50;100.00;63355.56;5007124;28;20134;-80
2024/02/20 04:07:50;;;;;;;12.45;5.18;;;;;;;-141.50;100.00;63355.56;5007841;28;20145;-79
2024/02/20 04:10:17;;;;;;;13.32;5.25;;;;;;;-141.50;100.00;63355.56;4972337;28;20046;-79
2024/02/20 04:12:44;;;;;;;14.57;5.30;;;;;;;-141.50;100.00;63355.56;5007323;28;20419;-79
2024/02/20 04:15:14;;;;;;;13.02;5.22;;;;;;;-141.50;100.00;63355.56;4989088;28;20602;-80
2024/02/20 04:17:41;;;;;;;15.35;5.43;;;;;;;-141.50;100.00;63355.56;5007120;28;20120;-79
2024/02/20 04:20:10;;;;;;;16.45;5.97;;;;;;;-141.50;100.00;63355.56;5000011;28;20046;-80
2024/02/20 04:22:38;;;;;;;15.93;5.65;;;;;;;-141.50;100.00;63355.56;5004661;28;20046;-79
2024/02/20 04:25:06;;;;;;;18.25;5.70;;;;;;;-141.50;100.00;63355.56;5006808;28;20077;-76
2024/02/20 04:27:34;;;;;;;13.73;5.65;;;;;;;-141.50;100.00;63355.56;5004635;28;20053;-78
2024/02/20 04:30:00;;;;;;;13.88;5.78;;;;;;;-141.50;100.00;63355.56;5000835;28;20137;-80
2024/02/20 04:32:27;;;;;;;14.55;5.95;;;;;;;-141.50;100.00;63355.56;5005747;28;20056;-80
2024/02/20 04:34:54;;;;;;;12.15;5.30;;;;;;;-141.50;100.00;63355.56;4987812;28;20042;-78
2024/02/20 04:37:21;;;;;;;17.13;6.22;;;;;;;-141.50;100.00;63355.56;5005933;28;20074;-79
2024/02/20 04:39:48;;;;;;;14.52;6.05;;;;;;;-141.50;100.00;63355.56;5006373;28;20050;-79
2024/02/20 04:42:15;;;;;;;15.02;5.63;;;;;;;-141.50;100.00;63355.56;4987767;28;20100;-78
2024/02/20 04:44:42;;;;;;;11.85;4.82;;;;;;;-141.50;100.00;63355.56;4989788;28;20566;-80
2024/02/20 04:47:09;;;;;;;16.73;5.78;;;;;;;-141.50;100.00;63355.56;4988290;28;20050;-80
2024/02/20 04:49:36;;;;;;;14.68;6.07;;;;;;;-141.50;100.00;63355.56;5004081;28;20042;-77
2024/02/20 04:52:03;;;;;;;13.85;5.38;;;;;;;-141.50;100.00;63355.56;5011587;28;20053;-77
2024/02/20 04:54:30;;;;;;;14.48;6.00;;;;;;;-141.50;100.00;63355.56;4993643;28;20073;-78
2024/02/20 04:56:57;;;;;;;15.57;5.53;;;;;;;-141.50;100.00;63355.56;5010445;28;20050;-78
2024/02/20 04:59:23;;;;;;;12.68;5.50;;;;;;;-141.50;100.00;63355.56;4984317;28;20141;-79
2024/02/20 05:01:50;;;;;;;17.33;5.85;;;;;;;-141.50;100.00;63355.56;5009451;28;20056;-78
2024/02/20 05:04:18;;;;;;;15.95;6.28;;;;;;;-141.50;100.00;63355.56;5010131;28;20081;-79
2024/02/20 05:06:45;;;;;;;16.00;6.20;;;;;;;-141.50;100.00;63355.56;5010654;28;20061;-78
2024/02/20 05:09:13;;;;;;;15.05;5.93;;;;;;;-141.50;100.00;63355.56;5009352;28;20443;-78
2024/02/20 05:11:41;;;;;;;14.60;6.05;;;;;;;-141.50;100.00;63355.56;4986777;28;20054;-79
2024/02/20 05:14:08;;;;;;;11.25;5.20;;;;;;;-141.50;100.00;63355.56;5009173;28;20545;-78
2024/02/20 05:16:35;;;;;;;16.65;5.80;;;;;;;-141.50;100.00;63355.56;5015033;28;20062;-78
2024/02/20 05:19:01;;;;;;;13.60;5.53;;;;;;;-141.50;100.00;63355.56;5004911;28;20054;-79
2024/02/20 05:21:28;;;;;;;12.68;5.53;;;;;;;-141.50;100.00;63355.56;4985754;28;20066;-78
2024/02/20 05:23:55;;;;;;;13.18;5.03;;;;;;;-141.50;100.00;63355.56;5010700;28;21209;-79
2024/02/20 05:26:22;;;;;;;13.57;5.45;;;;;;;-141.50;100.00;63355.56;5008531;28;20065;-78
2024/02/20 05:28:49;;;;;;;13.02;5.43;;;;;;;-141.50;100.00;63355.56;5010544;28;20077;-80
2024/02/20 05:31:30;;;;;;;12.57;5.65;;;;;;;-141.50;100.00;63355.56;4991569;28;20069;-79
2024/02/20 05:33:59;;;;;;;13.50;5.47;;;;;;;-141.50;100.00;63355.56;5008799;28;20822;-79
2024/02/20 05:36:31;;;;;;;15.02;5.85;;;;;;;-141.50;100.00;63355.56;4997391;28;20042;-79
2024/02/20 05:39:01;;;;;;;14.27;5.13;;;;;;;-141.50;100.00;63355.56;4993968;28;20120;-80
2024/02/20 05:41:30;;;;;;;14.10;5.30;;;;;;;-141.50;100.00;63355.56;5009694;28;20057;-79
2024/02/20 05:43:58;;;;;;;15.25;5.47;;;;;;;-141.50;100.00;63355.56;4991815;28;20058;-79
2024/02/20 05:46:34;;;;;;;14.88;5.25;;;;;;;-141.50;100.00;63355.56;5009548;28;20085;-79
2024/02/20 05:49:03;;;;;;;13.02;5.15;;;;;;;-141.50;100.00;63355.56;5010567;28;20054;-79
2024/02/20 05:51:31;;;;;;;13.02;5.00;;;;;;;-141.50;100.00;63355.56;5009397;28;20058;-80
2024/02/20 05:53:58;;;;;;;13.13;5.00;;;;;;;-141.50;100.00;63355.56;4993107;28;20057;-80
2024/02/20 05:56:25;;;;;;;11.77;4.63;;;;;;;-141.50;100.00;63355.56;5009243;28;20054;-79
2024/02/20 05:58:52;;;;;;;9.80;4.13;;;;;;;-141.50;100.00;63355.56;5010641;28;20119;-78
2024/02/20 06:01:20;;;;;;;10.38;4.60;;;;;;;-141.50;100.00;63355.56;4992431;28;20061;-79
2024/02/20 06:03:47;;;;;;;11.50;4.97;;;;;;;-141.50;100.00;63355.56;4985597;28;20092;-79
2024/02/20 06:06:14;;;;;;;11.20;4.78;;;;;;;-141.50;100.00;63355.56;4990437;28;20077;-80
2024/02/20 06:08:43;;;;;;;11.23;4.47;;;;;;;-141.50;100.00;63355.56;4991488;28;20061;-79
2024/02/20 06:11:14;;;;;;;9.60;3.70;;;;;;;-141.50;100.00;63355.56;5002493;28;20053;-79
2024/02/20 06:13:42;;;;;;;7.30;3.20;;;;;;;-141.50;100.00;63355.56;4994962;28;20066;-79
2024/02/20 06:16:08;;;;;;;9.40;2.85;;;;;;;-141.50;100.00;63355.56;5007212;28;20064;-78
2024/02/20 06:18:35;;;;;;;9.82;2.90;;;;;;;-141.50;100.00;63355.56;4991443;28;20068;-79
2024/02/20 06:21:03;;;;;;;7.68;3.20;;;;;;;-141.50;100.00;63355.56;4980147;28;20056;-79
2024/02/20 06:23:29;;;;;;;8.55;3.05;;;;;;;-141.50;100.00;63355.56;5003571;28;20065;-77
2024/02/20 06:25:56;;;;;;;10.10;3.65;;;;;;;-141.50;100.00;63355.56;4989825;28;20147;-77
2024/02/20 06:28:23;;;;;;;7.75;3.35;;;;;;;-141.50;100.00;63355.56;4991028;28;20145;-79
2024/02/20 06:30:50;;;;;;;10.50;3.75;;;;;;;-141.50;100.00;63355.56;5006574;28;20060;-77
2024/02/20 06:33:17;;;;;;;7.95;3.55;;;;;;;-141.50;100.00;63355.56;4987262;28;20147;-77
2024/02/20 06:35:44;;;;;;;10.93;3.60;;;;;;;-141.50;100.00;63355.56;5008343;28;20143;-80
2024/02/20 06:38:10;;;;;;;11.30;3.40;;;;;;;-141.50;100.00;63355.56;4976903;28;20085;-78
2024/02/20 06:40:37;;;;;;;8.30;3.30;;;;;;;-141.50;100.00;63355.56;4990018;28;20053;-79
2024/02/20 06:43:04;;;;;;;8.25;3.20;;;;;;;-141.50;100.00;63355.56;5009137;28;20451;-79
2024/02/20 06:45:31;;;;;;;6.93;2.85;;;;;;;-141.50;100.00;63355.56;4990249;28;20141;-79
2024/02/20 06:47:58;;;;;;;7.30;2.63;;;;;;;-141.50;100.00;63355.56;4990331;28;20045;-79
2024/02/20 06:50:24;;;;;;;7.88;3.15;;;;;;;-141.50;100.00;63355.56;4988782;28;20061;-77
2024/02/20 06:52:51;;;;;;;10.77;2.90;;;;;;;-141.50;100.00;63355.56;5006597;28;20077;-79
2024/02/20 06:55:18;;;;;;;7.20;2.80;;;;;;;-141.50;100.00;63355.56;5006350;28;20554;-79
2024/02/20 06:57:45;;;;;;;5.65;2.60;;;;;;;-141.50;100.00;63355.56;4990365;28;22285;-78
2024/02/20 07:00:14;;;;;;;5.30;2.53;;;;;;;-141.50;100.00;63355.56;4989776;28;20085;-79
2024/02/20 07:02:43;;;;;;;5.13;2.40;;;;;;;-141.50;100.00;63355.56;5012043;28;20049;-78
2024/02/20 07:05:11;;;;;;;5.50;2.60;;;;;;;-141.50;100.00;63355.56;4990492;28;20054;-77
2024/02/20 07:07:39;;;;;;;6.80;2.38;;;;;;;-141.50;100.00;63355.56;4987405;28;20431;-78
2024/02/20 07:10:09;;;;;;;4.47;2.40;;;;;;;-141.50;100.00;63355.56;5012061;28;20065;-78
2024/02/20 07:12:36;;;;;;;7.35;1.92;;;;;;;-141.50;100.00;63355.56;5006177;28;20054;-78
2024/02/20 07:15:05;;;;;;;5.75;2.30;;;;;;;-141.50;100.00;63355.56;4988766;28;20057;-78
2024/02/20 07:17:36;;;;;;;8.80;2.92;;;;;;;-141.50;100.00;63355.56;5006791;28;20046;-78
2024/02/20 07:20:06;;;;;;;7.38;2.63;;;;;;;-141.50;100.00;63355.56;4986331;28;20140;-80
2024/02/20 07:22:34;;;;;;;7.40;2.80;;;;;;;-141.50;100.00;63355.56;4999789;28;20053;-77
2024/02/20 07:25:01;;;;;;;7.65;2.78;;;;;;;-141.50;100.00;63355.56;5007514;28;20137;-78
2024/02/20 07:27:28;;;;;;;6.47;2.90;;;;;;;-141.50;100.00;63355.56;5005116;28;20038;-73
2024/02/20 07:29:56;;;;;;;4.95;2.42;;;;;;;-141.50;100.00;63355.56;5004785;28;20053;-74
2024/02/20 07:32:22;;;;;;;6.47;2.63;;;;;;;-141.50;100.00;63355.56;4985718;28;20107;-74
2024/02/20 07:34:50;;;;;;;5.93;2.13;;;;;;;-141.50;100.00;63355.56;5005534;28;20520;-78
2024/02/20 07:37:17;;;;;;;4.03;1.95;;;;;;;-141.50;100.00;63355.56;4985902;28;20062;-78
2024/02/20 07:39:44;;;;;;;5.90;1.80;;;;;;;-141.50;100.00;63355.56;5005990;28;20064;-77
2024/02/20 07:42:12;;;;;;;6.20;1.95;;;;;;;-141.50;100.00;63355.56;5005315;28;20149;-78
2024/02/20 07:44:39;;;;;;;4.75;2.00;;;;;;;-141.50;100.00;63355.56;5006165;28;20046;-78
2024/02/20 07:47:06;;;;;;;5.53;1.70;;;;;;;-141.50;100.00;63355.56;5006736;28;20054;-78
2024/02/20 07:49:34;;;;;;;4.65;1.95;;;;;;;-141.50;100.00;63355.56;5006118;28;20053;-78
2024/02/20 07:52:02;;;;;;;7.22;2.15;;;;;;;-141.50;100.00;63355.56;5007043;28;20133;-78
2024/02/20 07:54:31;;;;;;;5.53;1.77;;;;;;;-141.50;100.00;63355.56;5005662;28;20096;-78
2024/02/20 07:56:57;;;;;;;4.22;2.00;;;;;;;-141.50;100.00;63355.56;5006152;28;20076;-78
2024/02/20 07:59:24;;;;;;;6.22;2.63;;;;;;;-141.50;100.00;63355.56;5004750;28;20131;-77
2024/02/20 08:01:52;;;;;;;5.55;1.73;;;;;;;-141.50;100.00;63355.56;4988141;28;20053;-79
2024/02/20 08:04:19;;;;;;;5.15;1.80;;;;;;;-141.50;100.00;63355.56;5006694;28;20144;-78
2024/02/20 08:06:46;;;;;;;6.05;1.70;;;;;;;-141.50;100.00;63355.56;5008069;28;20054;-78
2024/02/20 08:09:14;;;;;;;3.50;1.67;;;;;;;-141.50;100.00;63355.56;4989271;28;20069;-77
2024/02/20 08:11:41;;;;;;;9.13;2.17;;;;;;;-141.50;100.00;63355.56;5010027;28;20054;-77
2024/02/20 08:14:09;;;;;;;10.25;2.40;;;;;;;-141.50;100.00;63355.56;5008216;28;20054;-77
2024/02/20 08:16:36;;;;;;;6.95;2.30;;;;;;;-141.50;100.00;63355.56;5006576;28;20056;-77
2024/02/20 08:19:03;;;;;;;7.25;2.15;;;;;;;-141.50;100.00;63355.56;5000469;28;20455;-77
2024/02/20 08:21:30;;;;;;;4.15;1.55;;;;;;;-141.50;100.00;63355.56;4990955;28;20943;-77
2024/02/20 08:24:01;;;;;;;7.75;2.20;;;;;;;-141.50;100.00;63355.56;4985464;28;20050;-77
2024/02/20 08:26:27;;;;;;;5.90;2.10;;;;;;;-141.50;100.00;63355.56;4991008;28;20042;-78
2024/02/20 08:28:54;;;;;;;5.57;1.75;;;;;;;-141.50;100.00;63355.56;5009527;28;20211;-78
2024/02/20 08:31:21;;;;;;;6.47;1.58;;;;;;;-141.50;100.00;63355.56;5009204;28;20089;-78
2024/02/20 08:33:50;;;;;;;4.90;1.55;;;;;;;-141.50;100.00;63355.56;5011646;28;20061;-78
2024/02/20 08:36:19;;;;;;;6.63;1.67;;;;;;;-141.50;100.00;63355.56;5008784;28;20104;-77
2024/02/20 08:38:47;;;;;;;6.72;1.77;;;;;;;-141.50;100.00;63355.56;5008089;28;20068;-76
2024/02/20 08:41:14;;;;;;;5.80;1.73;;;;;;;-141.50;100.00;63355.56;5008697;28;20112;-78
2024/02/20 08:43:44;;;;;;;9.65;1.73;;;;;;;-141.50;100.00;63355.56;4991077;28;20621;-78
2024/02/20 08:46:11;;;;;;;4.18;1.55;;;;;;;-141.50;100.00;63355.56;5008849;28;20060;-78
2024/02/20 08:48:38;;;;;;;2.55;1.30;;;;;;;-141.50;100.00;63355.56;5008262;28;20062;-76
2024/02/20 08:51:05;;;;;;;4.70;1.65;;;;;;;-141.50;100.00;63355.56;5009356;28;20046;-76
2024/02/20 08:53:31;;;;;;;3.92;1.42;;;;;;;-141.50;100.00;63355.56;5007656;28;20050;-78
2024/02/20 08:55:58;;;;;;;4.18;1.30;;;;;;;-141.50;100.00;63355.56;5008008;28;20515;-76
2024/02/20 08:58:25;;;;;;;4.03;1.15;;;;;;;-141.50;100.00;63355.56;5007369;28;20484;-76
2024/02/20 09:00:52;;;;;;;4.95;1.17;;;;;;;-141.50;100.00;63355.56;4990830;28;20426;-78
2024/02/20 09:03:19;;;;;;;6.93;1.10;;;;;;;-141.50;100.00;63355.56;4978819;28;20068;-78
2024/02/20 09:05:46;;;;;;;6.15;1.80;;;;;;;-141.50;100.00;63355.56;4986584;28;20062;-78
2024/02/20 09:08:14;;;;;;;4.22;1.10;;;;;;;-141.50;100.00;63355.56;5009014;28;20080;-78
2024/02/20 09:10:41;;;;;;;4.93;1.45;;;;;;;-141.50;100.00;63355.56;4990739;28;20062;-77
2024/02/20 09:13:08;;;;;;;7.45;1.17;;;;;;;-141.50;100.00;63355.56;5008529;28;20445;-78
2024/02/20 09:15:35;;;;;;;2.75;0.73;;;;;;;-141.50;100.00;63355.56;4975941;28;20416;-78
2024/02/20 09:18:03;;;;;;;6.78;1.60;;;;;;;-141.50;100.00;63355.56;5011142;28;20045;-77
2024/02/20 09:20:30;;;;;;;7.25;1.30;;;;;;;-141.50;100.00;63355.56;4992433;28;20132;-77
2024/02/20 09:22:57;;;;;;;9.18;1.05;;;;;;;-141.50;100.00;63355.56;4989253;28;20286;-77
2024/02/20 09:25:24;;;;;;;2.97;0.95;;;;;;;-141.50;100.00;63355.56;4989354;28;20089;-77
2024/02/20 09:27:50;;;;;;;2.00;0.90;;;;;;;-141.50;100.00;63355.56;4990094;28;20057;-77
2024/02/20 09:30:17;;;;;;;4.32;1.00;;;;;;;-141.50;100.00;63355.56;5007305;28;20519;-77
2024/02/20 09:32:44;;;;;;;5.07;1.17;;;;;;;-141.50;100.00;63355.56;4982129;28;20058;-76
2024/02/20 09:35:11;;;;;;;7.00;1.50;;;;;;;-141.50;100.00;63355.56;4991222;28;20081;-76
2024/02/20 09:37:39;;;;;;;6.95;1.25;;;;;;;-141.50;100.00;63355.56;5008933;28;20045;-79
2024/02/20 09:40:06;;;;;;;8.48;1.40;;;;;;;-141.50;100.00;63355.56;4991931;28;20069;-78
2024/02/20 09:42:39;;;;;;;6.80;1.20;;;;;;;-141.50;100.00;63355.56;5009449;28;20073;-78
2024/02/20 09:45:27;;;;;;;19.65;3.08;;;;;;;-141.50;100.00;63355.56;5010905;28;20141;-79
2024/02/20 09:47:54;;;;;;;6.90;1.13;;;;;;;-141.50;100.00;63355.56;5008777;28;20058;-79
2024/02/20 09:50:24;;;;;;;2.47;1.17;;;;;;;-141.50;100.00;63355.56;5009654;28;20061;-79
2024/02/20 09:52:53;;;;;;;10.02;1.52;;;;;;;-141.50;100.00;63355.56;5008787;28;20066;-79
2024/02/20 09:55:24;;;;;;;4.90;1.33;;;;;;;-141.50;100.00;63355.56;4989018;28;20338;-79
2024/02/20 09:57:52;;;;;;;7.95;1.17;;;;;;;-141.50;100.00;63355.56;5000238;28;20058;-79
2024/02/20 10:00:20;;;;;;;3.55;1.20;;;;;;;-141.50;100.00;63355.56;5011401;28;20504;-78
2024/02/20 10:02:48;;;;;;;4.72;1.10;;;;;;;-141.50;100.00;63355.56;5008355;28;20050;-78
2024/02/20 10:05:16;;;;;;;5.45;1.50;;;;;;;-141.50;100.00;63355.56;4986220;28;20065;-78
2024/02/20 10:07:44;;;;;;;5.93;1.50;;;;;;;-141.50;100.00;63355.56;4990889;28;20152;-79
2024/02/20 10:10:15;;;;;;;11.80;1.73;;;;;;;-141.50;100.00;63355.56;4991776;28;20133;-78
2024/02/20 10:12:44;;;;;;;7.13;1.80;;;;;;;-141.50;100.00;63355.56;4974538;28;20454;-79
2024/02/20 10:15:15;;;;;;;9.77;2.20;;;;;;;-141.50;100.00;63355.56;4985188;28;20072;-79
2024/02/20 10:17:42;;;;;;;12.43;2.05;;;;;;;-141.50;100.00;63355.56;5008547;28;20041;-78
2024/02/20 10:20:12;;;;;;;5.68;1.55;;;;;;;-141.50;100.00;63355.56;5009208;28;20050;-80
2024/02/20 10:22:40;;;;;;;10.98;1.88;;;;;;;-141.50;100.00;63355.56;5007627;28;20045;-80
2024/02/20 10:25:13;;;;;;;9.50;1.85;;;;;;;-141.50;100.00;63355.56;4990606;28;20084;-78
2024/02/20 10:27:41;;;;;;;5.75;1.60;;;;;;;-141.50;100.00;63355.56;5009068;28;20099;-78
2024/02/20 10:30:08;;;;;;;10.82;1.52;;;;;;;-141.50;100.00;63355.56;4981025;28;20057;-77
2024/02/20 10:32:36;;;;;;;8.43;1.45;;;;;;;-141.50;100.00;63355.56;4990160;28;20150;-79
2024/02/20 10:35:06;;;;;;;7.43;1.50;;;;;;;-141.50;100.00;63355.56;4991152;28;20077;-77
2024/02/20 10:37:33;;;;;;;5.15;1.02;;;;;;;-141.50;100.00;63355.56;5007566;28;20100;-79
2024/02/20 10:40:11;;;;;;;8.25;1.58;;;;;;;-141.50;100.00;63355.56;4991586;28;20533;-79
2024/02/20 10:42:55;;;;;;;9.52;1.70;;;;;;;-141.50;100.00;63355.56;4989454;28;20058;-78
2024/02/20 10:45:23;;;;;;;9.70;1.52;;;;;;;-141.50;100.00;63355.56;5009338;28;20057;-79
2024/02/20 10:47:52;;;;;;;10.07;1.98;;;;;;;-141.50;100.00;63355.56;5009164;28;20508;-80
2024/02/20 10:50:19;;;;;;;6.72;1.45;;;;;;;-141.50;100.00;63355.56;4990943;28;20054;-77
2024/02/20 10:52:47;;;;;;;5.82;1.10;;;;;;;-141.50;100.00;63355.56;5007131;28;20128;-78
2024/02/20 10:55:15;;;;;;;8.65;1.30;;;;;;;-141.50;100.00;63355.56;5010312;28;20054;-79
2024/02/20 10:57:59;;;;;;;8.30;1.30;;;;;;;-141.50;100.00;63355.56;5007819;28;20081;-79
2024/02/20 11:00:27;;;;;;;3.70;1.33;;;;;;;-141.50;100.00;63355.56;5008771;28;20464;-77
2024/02/20 11:02:55;;;;;;;9.18;1.48;;;;;;;-141.50;100.00;63355.56;5006682;28;20074;-78
2024/02/20 11:05:23;;;;;;;7.15;2.05;;;;;;;-141.50;100.00;63355.56;4990492;28;20057;-79
2024/02/20 11:07:50;;;;;;;9.48;1.73;;;;;;;-141.50;100.00;63355.56;5007477;28;20492;-78
2024/02/20 11:10:19;;;;;;;7.95;1.67;;;;;;;-141.50;100.00;63355.56;4990865;28;20065;-79